createdAt,value
2019-05-23T00:01:49.435Z,13.50
2019-05-23T00:04:19.440Z,13.40
2019-05-23T00:06:48.195Z,13.40
2019-05-23T00:09:17.242Z,13.40
2019-05-23T00:11:47.230Z,13.40
2019-05-23T00:14:32.719Z,13.30
2019-05-23T00:17:02.028Z,13.30
2019-05-23T00:19:30.612Z,13.20
2019-05-23T00:21:59.865Z,13.20
2019-05-23T00:24:28.650Z,13.20
2019-05-23T00:26:58.691Z,13.20
2019-05-23T00:29:27.428Z,13.10
2019-05-23T00:32:09.566Z,13.10
2019-05-23T00:34:39.613Z,13.20
2019-05-23T00:37:08.001Z,13.10
2019-05-23T00:39:37.456Z,13.00
2019-05-23T00:42:07.937Z,13.00
2019-05-23T00:44:37.280Z,13.00
2019-05-23T00:47:05.690Z,13.00
2019-05-23T00:49:34.460Z,13.00
2019-05-23T00:52:03.991Z,13.00
2019-05-23T00:54:32.583Z,13.00
2019-05-23T00:57:02.354Z,13.00
2019-05-23T00:59:31.004Z,12.90
2019-05-23T01:02:00.202Z,13.00
2019-05-23T01:04:28.582Z,13.00
2019-05-23T01:06:57.833Z,13.00
2019-05-23T01:09:27.530Z,13.00
2019-05-23T01:11:55.978Z,12.90
2019-05-23T01:14:24.929Z,12.90
2019-05-23T01:16:53.495Z,12.90
2019-05-23T01:19:22.977Z,12.80
2019-05-23T01:21:59.180Z,12.80
2019-05-23T01:24:38.450Z,12.70
2019-05-23T01:27:07.419Z,12.70
2019-05-23T01:29:40.819Z,12.70
2019-05-23T01:32:17.026Z,12.70
2019-05-23T01:34:46.095Z,12.70
2019-05-23T01:37:15.952Z,12.70
2019-05-23T01:39:44.501Z,12.70
2019-05-23T01:42:13.419Z,12.60
2019-05-23T01:44:42.645Z,12.60
2019-05-23T01:47:11.422Z,12.60
2019-05-23T01:49:40.065Z,12.60
2019-05-23T01:52:08.910Z,12.50
2019-05-23T01:54:37.895Z,12.60
2019-05-23T01:57:07.919Z,12.60
2019-05-23T01:59:36.467Z,12.50
2019-05-23T02:02:05.061Z,12.50
2019-05-23T02:04:33.525Z,12.50
2019-05-23T02:07:02.089Z,12.40
2019-05-23T02:09:30.507Z,12.40
2019-05-23T02:11:59.545Z,12.40
2019-05-23T02:14:27.958Z,12.40
2019-05-23T02:16:58.259Z,12.40
2019-05-23T02:19:26.670Z,12.30
2019-05-23T02:21:58.295Z,12.30
2019-05-23T02:24:26.763Z,12.30
2019-05-23T02:26:56.130Z,12.20
2019-05-23T02:29:26.049Z,12.20
2019-05-23T02:31:55.067Z,12.20
2019-05-23T02:34:25.119Z,12.20
2019-05-23T02:36:55.409Z,12.20
2019-05-23T02:39:28.519Z,12.10
2019-05-23T02:41:58.551Z,12.10
2019-05-23T02:44:28.262Z,12.10
2019-05-23T02:47:10.077Z,12.10
2019-05-23T02:49:38.501Z,12.00
2019-05-23T02:52:23.282Z,12.00
2019-05-23T02:54:52.340Z,12.00
2019-05-23T02:57:21.865Z,12.00
2019-05-23T02:59:52.959Z,11.90
2019-05-23T03:02:35.334Z,11.90
2019-05-23T03:05:07.316Z,11.90
2019-05-23T03:07:36.097Z,11.90
2019-05-23T03:10:08.969Z,11.90
2019-05-23T03:12:38.869Z,11.80
2019-05-23T03:15:08.916Z,11.80
2019-05-23T03:17:39.655Z,11.80
2019-05-23T03:20:08.836Z,11.80
2019-05-23T03:22:46.524Z,11.80
2019-05-23T03:25:36.782Z,11.70
2019-05-23T03:28:07.577Z,11.70
2019-05-23T03:30:40.547Z,11.70
2019-05-23T03:33:10.591Z,11.70
2019-05-23T03:35:55.861Z,11.70
2019-05-23T03:38:24.552Z,11.60
2019-05-23T03:40:52.953Z,11.60
2019-05-23T03:43:21.431Z,11.60
2019-05-23T03:45:57.259Z,11.60
2019-05-23T03:48:25.772Z,11.60
2019-05-23T03:50:55.452Z,11.60
2019-05-23T03:53:25.467Z,11.60
2019-05-23T03:55:53.949Z,11.60
2019-05-23T03:58:23.607Z,11.60
2019-05-23T04:00:53.677Z,11.70
2019-05-23T04:03:24.340Z,11.70
2019-05-23T04:05:53.065Z,11.70
2019-05-23T04:08:22.230Z,11.80
2019-05-23T04:10:52.081Z,11.80
2019-05-23T04:13:21.820Z,11.80
2019-05-23T04:15:50.254Z,11.80
2019-05-23T04:18:18.927Z,11.80
2019-05-23T04:20:47.448Z,11.80
2019-05-23T04:23:15.891Z,11.90
2019-05-23T04:25:44.293Z,11.90
2019-05-23T04:28:12.706Z,11.90
2019-05-23T04:30:41.117Z,12.00
2019-05-23T04:33:09.864Z,12.00
2019-05-23T04:35:38.293Z,12.00
2019-05-23T04:38:07.174Z,12.00
2019-05-23T04:40:36.582Z,12.10
2019-05-23T04:43:04.997Z,12.10
2019-05-23T04:45:35.060Z,12.10
2019-05-23T04:48:04.941Z,12.10
2019-05-23T04:50:33.725Z,12.20
2019-05-23T04:53:02.267Z,12.20
2019-05-23T04:55:31.455Z,12.20
2019-05-23T04:58:03.878Z,12.20
2019-05-23T05:00:29.910Z,12.30
2019-05-23T05:02:58.284Z,12.30
2019-05-23T05:05:26.705Z,12.40
2019-05-23T05:07:55.557Z,12.40
2019-05-23T05:10:25.583Z,12.50
2019-05-23T05:12:54.006Z,12.50
2019-05-23T05:15:23.376Z,12.50
2019-05-23T05:17:51.804Z,12.60
2019-05-23T05:20:20.486Z,12.60
2019-05-23T05:22:49.352Z,12.70
2019-05-23T05:25:18.496Z,12.80
2019-05-23T05:27:47.331Z,12.90
2019-05-23T05:30:15.802Z,12.90
2019-05-23T05:32:45.647Z,13.00
2019-05-23T05:35:14.350Z,13.00
2019-05-23T05:37:42.797Z,13.00
2019-05-23T05:40:11.321Z,13.10
2019-05-23T05:42:41.400Z,13.20
2019-05-23T05:45:10.425Z,13.30
2019-05-23T05:47:38.948Z,13.40
2019-05-23T05:50:08.223Z,13.40
2019-05-23T05:52:37.567Z,13.50
2019-05-23T05:55:07.007Z,13.60
2019-05-23T05:57:35.503Z,13.70
2019-05-23T06:00:13.062Z,13.80
2019-05-23T06:02:41.164Z,13.90
2019-05-23T06:05:11.277Z,14.00
2019-05-23T06:07:41.340Z,14.10
2019-05-23T06:10:11.448Z,14.20
2019-05-23T06:12:40.613Z,14.40
2019-05-23T06:15:09.208Z,14.50
2019-05-23T06:17:37.703Z,14.50
2019-05-23T06:20:06.824Z,14.60
2019-05-23T06:22:35.720Z,14.70
2019-05-23T06:25:07.188Z,14.80
2019-05-23T06:27:35.815Z,15.00
2019-05-23T06:30:07.716Z,15.10
2019-05-23T06:32:36.296Z,15.20
2019-05-23T06:35:06.801Z,15.40
2019-05-23T06:37:35.283Z,15.50
2019-05-23T06:40:06.904Z,15.70
2019-05-23T06:42:35.300Z,15.80
2019-05-23T06:45:05.010Z,16.00
2019-05-23T06:47:33.489Z,16.10
2019-05-23T06:50:01.929Z,16.10
2019-05-23T06:52:30.358Z,16.20
2019-05-23T06:54:59.848Z,16.20
2019-05-23T06:57:28.557Z,16.30
2019-05-23T06:59:56.936Z,16.40
2019-05-23T07:02:25.885Z,16.40
2019-05-23T07:04:54.341Z,16.50
2019-05-23T07:07:22.801Z,16.50
2019-05-23T07:09:51.552Z,16.60
2019-05-23T07:12:20.431Z,16.80
2019-05-23T07:14:48.805Z,16.90
2019-05-23T07:17:18.362Z,16.90
2019-05-23T07:19:46.797Z,17.00
2019-05-23T07:22:18.294Z,17.10
2019-05-23T07:24:57.715Z,17.10
2019-05-23T07:27:15.392Z,17.20
2019-05-23T07:29:43.811Z,17.30
2019-05-23T07:32:12.569Z,17.40
2019-05-23T07:34:40.983Z,17.50
2019-05-23T07:37:10.417Z,17.60
2019-05-23T07:39:38.947Z,17.70
2019-05-23T07:42:08.123Z,17.70
2019-05-23T07:44:47.931Z,17.80
2019-05-23T07:47:10.230Z,17.80
2019-05-23T07:49:38.785Z,18.00
2019-05-23T07:52:07.210Z,18.10
2019-05-23T07:54:37.268Z,18.10
2019-05-23T07:57:07.363Z,18.10
2019-05-23T07:59:35.776Z,18.20
2019-05-23T08:02:11.332Z,18.10
2019-05-23T08:04:39.733Z,18.10
2019-05-23T08:07:09.836Z,18.10
2019-05-23T08:09:38.586Z,18.20
2019-05-23T08:12:07.003Z,18.20
2019-05-23T08:14:36.434Z,18.30
2019-05-23T08:17:05.252Z,18.30
2019-05-23T08:19:48.560Z,18.30
2019-05-23T08:22:03.901Z,18.40
2019-05-23T08:24:32.295Z,18.50
2019-05-23T08:27:02.193Z,18.50
2019-05-23T08:29:30.859Z,18.60
2019-05-23T08:31:59.717Z,18.60
2019-05-23T08:34:40.536Z,18.70
2019-05-23T08:36:59.041Z,18.70
2019-05-23T08:39:27.792Z,18.70
2019-05-23T08:41:56.659Z,18.80
2019-05-23T08:44:25.344Z,18.90
2019-05-23T08:46:54.407Z,18.90
2019-05-23T08:49:22.884Z,19.00
2019-05-23T08:51:51.329Z,19.00
2019-05-23T08:54:19.736Z,19.10
2019-05-23T08:56:48.492Z,19.00
2019-05-23T08:59:16.877Z,19.00
2019-05-23T09:01:45.448Z,19.10
2019-05-23T09:04:13.905Z,19.10
2019-05-23T09:06:42.394Z,19.20
2019-05-23T09:09:28.261Z,19.30
2019-05-23T09:11:41.211Z,19.40
2019-05-23T09:14:09.770Z,19.40
2019-05-23T09:16:38.561Z,19.40
2019-05-23T09:19:06.940Z,19.40
2019-05-23T09:21:35.384Z,19.40
2019-05-23T09:24:03.931Z,19.40
2019-05-23T09:26:32.522Z,19.30
2019-05-23T09:29:00.958Z,19.40
2019-05-23T09:31:29.407Z,19.50
2019-05-23T09:33:57.824Z,19.50
2019-05-23T09:36:26.224Z,19.60
2019-05-23T09:38:54.611Z,19.70
2019-05-23T09:41:23.062Z,19.80
2019-05-23T09:43:51.508Z,19.90
2019-05-23T09:46:20.323Z,20.00
2019-05-23T09:48:48.700Z,20.10
2019-05-23T09:51:17.799Z,20.10
2019-05-23T09:53:47.576Z,20.10
2019-05-23T09:56:16.388Z,20.10
2019-05-23T09:58:44.778Z,20.10
2019-05-23T10:01:13.435Z,20.10
2019-05-23T10:03:41.919Z,20.20
2019-05-23T10:06:10.325Z,20.20
2019-05-23T10:08:38.741Z,20.30
2019-05-23T10:11:07.136Z,20.30
2019-05-23T10:13:39.083Z,20.40
2019-05-23T10:16:07.292Z,20.60
2019-05-23T10:18:38.737Z,20.60
2019-05-23T10:21:07.110Z,20.60
2019-05-23T10:23:35.519Z,20.60
2019-05-23T10:26:03.995Z,20.70
2019-05-23T10:28:32.416Z,20.70
2019-05-23T10:31:00.906Z,20.70
2019-05-23T10:33:29.280Z,20.80
2019-05-23T10:36:00.976Z,20.80
2019-05-23T10:38:29.356Z,20.70
2019-05-23T10:40:57.852Z,20.80
2019-05-23T10:43:26.265Z,21.00
2019-05-23T10:45:54.719Z,21.00
2019-05-23T10:48:23.504Z,20.90
2019-05-23T10:50:52.347Z,20.90
2019-05-23T10:53:21.258Z,21.00
2019-05-23T10:55:49.681Z,21.10
2019-05-23T10:58:18.675Z,21.10
2019-05-23T11:00:47.490Z,21.10
2019-05-23T11:03:16.068Z,21.20
2019-05-23T11:05:44.607Z,21.30
2019-05-23T11:08:13.028Z,21.40
2019-05-23T11:10:42.168Z,21.50
2019-05-23T11:13:10.512Z,21.60
2019-05-23T11:15:39.259Z,21.70
2019-05-23T11:18:08.552Z,21.90
2019-05-23T11:20:37.344Z,22.00
2019-05-23T11:23:05.806Z,22.10
2019-05-23T11:25:34.538Z,22.20
2019-05-23T11:28:03.007Z,22.20
2019-05-23T11:30:33.051Z,22.20
2019-05-23T11:33:01.489Z,22.20
2019-05-23T11:35:29.863Z,22.20
2019-05-23T11:37:58.269Z,22.20
2019-05-23T11:40:26.645Z,22.30
2019-05-23T11:42:55.022Z,22.30
2019-05-23T11:45:25.071Z,22.30
2019-05-23T11:47:53.455Z,22.30
2019-05-23T11:50:21.866Z,22.20
2019-05-23T11:52:50.682Z,22.00
2019-05-23T11:55:19.055Z,22.10
2019-05-23T11:57:49.176Z,22.10
2019-05-23T12:00:20.823Z,22.10
2019-05-23T12:02:50.173Z,22.10
2019-05-23T12:05:20.212Z,22.20
2019-05-23T12:07:48.889Z,22.30
2019-05-23T12:10:17.358Z,22.30
2019-05-23T12:12:45.746Z,22.50
2019-05-23T12:15:18.444Z,22.60
2019-05-23T12:17:46.844Z,22.60
2019-05-23T12:20:15.919Z,22.70
2019-05-23T12:22:44.689Z,23.00
2019-05-23T12:25:22.153Z,23.10
2019-05-23T12:27:43.882Z,23.10
2019-05-23T12:30:14.121Z,23.10
2019-05-23T12:32:43.612Z,23.00
2019-05-23T12:35:12.434Z,23.00
2019-05-23T12:37:40.991Z,23.10
2019-05-23T12:40:11.417Z,23.30
2019-05-23T12:42:39.782Z,23.50
2019-05-23T12:45:08.902Z,23.60
2019-05-23T12:47:55.362Z,23.60
2019-05-23T12:50:30.812Z,23.70
2019-05-23T12:52:59.192Z,23.70
2019-05-23T12:55:27.622Z,23.70
2019-05-23T12:57:56.011Z,23.60
2019-05-23T13:00:28.926Z,23.70
2019-05-23T13:02:58.194Z,23.70
2019-05-23T13:05:27.087Z,23.80
2019-05-23T13:07:56.545Z,23.80
2019-05-23T13:10:25.728Z,24.00
2019-05-23T13:12:54.308Z,24.30
2019-05-23T13:15:23.350Z,24.50
2019-05-23T13:17:51.774Z,24.80
2019-05-23T13:20:20.155Z,25.00
2019-05-23T13:22:48.531Z,24.90
2019-05-23T13:25:17.038Z,24.90
2019-05-23T13:27:45.417Z,24.80
2019-05-23T13:30:13.944Z,24.80
2019-05-23T13:32:42.379Z,24.80
2019-05-23T13:35:10.817Z,25.00
2019-05-23T13:37:52.898Z,24.90
2019-05-23T13:40:09.846Z,24.80
2019-05-23T13:42:38.336Z,24.90
2019-05-23T13:45:07.274Z,24.90
2019-05-23T13:47:36.132Z,25.00
2019-05-23T13:50:07.595Z,24.90
2019-05-23T13:52:36.427Z,24.80
2019-05-23T13:55:06.080Z,25.10
2019-05-23T13:57:34.958Z,25.40
2019-05-23T14:00:04.753Z,25.40
2019-05-23T14:02:33.170Z,25.40
2019-05-23T14:05:01.617Z,25.40
2019-05-23T14:07:30.416Z,25.40
2019-05-23T14:09:58.909Z,25.20
2019-05-23T14:12:27.564Z,25.30
2019-05-23T14:14:56.027Z,25.20
2019-05-23T14:17:34.750Z,25.40
2019-05-23T14:20:04.485Z,25.20
2019-05-23T14:22:34.707Z,25.20
2019-05-23T14:25:03.138Z,25.30
2019-05-23T14:27:33.162Z,25.40
2019-05-23T14:30:10.703Z,25.40
2019-05-23T14:32:39.833Z,25.30
2019-05-23T14:35:08.216Z,25.10
2019-05-23T14:37:40.785Z,25.10
2019-05-23T14:40:10.006Z,25.20
2019-05-23T14:42:42.766Z,25.40
2019-05-23T14:45:18.520Z,25.50
2019-05-23T14:47:51.109Z,25.60
2019-05-23T14:50:21.162Z,25.60
2019-05-23T14:53:00.273Z,25.70
2019-05-23T14:55:29.932Z,25.70
2019-05-23T14:57:58.562Z,25.60
2019-05-23T15:00:27.868Z,25.50
2019-05-23T15:02:56.254Z,25.60
2019-05-23T15:05:25.338Z,25.60
2019-05-23T15:07:53.703Z,25.70
2019-05-23T15:10:22.598Z,25.60
2019-05-23T15:12:51.051Z,25.40
2019-05-23T15:15:19.748Z,25.40
2019-05-23T15:17:48.194Z,25.40
2019-05-23T15:20:16.642Z,25.50
2019-05-23T15:22:45.205Z,25.50
2019-05-23T15:25:13.611Z,25.50
2019-05-23T15:27:42.067Z,25.40
2019-05-23T15:30:10.448Z,25.50
2019-05-23T15:32:39.200Z,25.40
2019-05-23T15:35:07.588Z,25.30
2019-05-23T15:37:35.999Z,25.40
2019-05-23T15:40:05.137Z,25.40
2019-05-23T15:42:33.587Z,25.30
2019-05-23T15:45:02.094Z,25.20
2019-05-23T15:47:32.187Z,25.20
2019-05-23T15:50:05.701Z,25.10
2019-05-23T15:52:49.332Z,25.10
2019-05-23T15:55:35.641Z,25.00
2019-05-23T15:58:22.320Z,24.80
2019-05-23T16:01:09.021Z,24.80
2019-05-23T16:03:44.894Z,24.70
2019-05-23T16:06:15.397Z,24.50
2019-05-23T16:08:44.088Z,24.30
2019-05-23T16:11:12.502Z,24.20
2019-05-23T16:13:41.000Z,24.00
2019-05-23T16:16:09.421Z,23.90
2019-05-23T16:18:39.427Z,23.80
2019-05-23T16:21:07.837Z,23.70
2019-05-23T16:23:36.198Z,23.60
2019-05-23T16:26:04.687Z,23.60
2019-05-23T16:28:33.059Z,23.50
2019-05-23T16:31:04.767Z,23.30
2019-05-23T16:33:33.209Z,23.20
2019-05-23T16:36:01.543Z,23.10
2019-05-23T16:38:29.955Z,22.90
2019-05-23T16:40:58.336Z,22.60
2019-05-23T16:43:26.751Z,22.40
2019-05-23T16:45:55.142Z,22.30
2019-05-23T16:48:23.633Z,22.20
2019-05-23T16:50:52.061Z,22.10
2019-05-23T16:53:20.540Z,22.10
2019-05-23T16:55:59.383Z,22.00
2019-05-23T16:58:46.028Z,22.00
2019-05-23T17:01:25.145Z,22.00
2019-05-23T17:03:57.646Z,22.00
2019-05-23T17:06:32.922Z,21.90
2019-05-23T17:09:11.665Z,21.80
2019-05-23T17:11:41.782Z,21.80
2019-05-23T17:14:24.044Z,21.70
2019-05-23T17:17:12.342Z,21.60
2019-05-23T17:19:44.857Z,21.50
2019-05-23T17:22:20.766Z,21.40
2019-05-23T17:24:53.557Z,21.40
2019-05-23T17:27:32.302Z,21.30
2019-05-23T17:30:08.914Z,21.30
2019-05-23T17:32:37.481Z,21.20
2019-05-23T17:35:06.143Z,21.20
2019-05-23T17:37:34.878Z,21.10
2019-05-23T17:40:03.963Z,21.00
2019-05-23T17:42:32.794Z,21.00
2019-05-23T17:45:01.281Z,21.00
2019-05-23T17:47:30.382Z,21.00
2019-05-23T17:49:58.736Z,20.90
2019-05-23T17:52:27.143Z,20.90
2019-05-23T17:54:55.554Z,20.90
2019-05-23T17:57:24.355Z,20.90
2019-05-23T17:59:52.767Z,20.80
2019-05-23T18:02:21.857Z,20.80
2019-05-23T18:04:50.265Z,20.70
2019-05-23T18:07:18.798Z,20.70
2019-05-23T18:09:47.287Z,20.70
2019-05-23T18:12:15.946Z,20.70
2019-05-23T18:14:44.352Z,20.60
2019-05-23T18:17:12.750Z,20.50
2019-05-23T18:19:41.218Z,20.60
2019-05-23T18:22:11.314Z,20.60
2019-05-23T18:24:39.733Z,20.60
2019-05-23T18:27:09.047Z,20.50
2019-05-23T18:29:37.416Z,20.50
2019-05-23T18:32:07.528Z,20.50
2019-05-23T18:34:36.233Z,20.40
2019-05-23T18:37:05.228Z,20.40
2019-05-23T18:39:34.827Z,20.30
2019-05-23T18:42:03.418Z,20.30
2019-05-23T18:44:32.270Z,20.20
2019-05-23T18:47:02.308Z,20.10
2019-05-23T18:49:31.026Z,20.10
2019-05-23T18:51:59.501Z,20.00
2019-05-23T18:54:28.094Z,20.00
2019-05-23T18:56:56.481Z,19.90
2019-05-23T18:59:25.458Z,19.80
2019-05-23T19:01:53.808Z,19.80
2019-05-23T19:04:22.208Z,19.70
2019-05-23T19:06:52.293Z,19.70
2019-05-23T19:09:21.948Z,19.60
2019-05-23T19:11:50.375Z,19.60
2019-05-23T19:14:18.826Z,19.50
2019-05-23T19:16:47.815Z,19.50
2019-05-23T19:19:16.359Z,19.40
2019-05-23T19:21:44.756Z,19.40
2019-05-23T19:24:13.453Z,19.30
2019-05-23T19:26:42.104Z,19.30
2019-05-23T19:29:11.397Z,19.20
2019-05-23T19:31:39.761Z,19.20
2019-05-23T19:34:08.246Z,19.10
2019-05-23T19:36:37.204Z,19.00
2019-05-23T19:39:06.152Z,19.00
2019-05-23T19:41:37.958Z,19.00
2019-05-23T19:44:05.255Z,19.00
2019-05-23T19:46:33.694Z,19.00
2019-05-23T19:49:02.147Z,18.90
2019-05-23T19:51:30.626Z,18.90
2019-05-23T19:53:59.416Z,18.80
2019-05-23T19:56:28.038Z,18.70
2019-05-23T19:58:56.542Z,18.70
2019-05-23T20:01:26.619Z,18.70
2019-05-23T20:03:55.191Z,18.60
2019-05-23T20:06:23.743Z,18.60
2019-05-23T20:08:52.576Z,18.50
2019-05-23T20:11:21.023Z,18.50
2019-05-23T20:13:49.528Z,18.50
2019-05-23T20:16:17.904Z,18.50
2019-05-23T20:18:46.455Z,18.40
2019-05-23T20:21:15.218Z,18.40
2019-05-23T20:23:43.793Z,18.30
2019-05-23T20:26:12.362Z,18.30
2019-05-23T20:28:40.766Z,18.20
2019-05-23T20:31:09.148Z,18.20
2019-05-23T20:33:37.565Z,18.10
2019-05-23T20:36:11.720Z,18.00
2019-05-23T20:38:37.665Z,18.00
2019-05-23T20:41:06.412Z,17.90
2019-05-23T20:43:35.047Z,17.90
2019-05-23T20:46:03.509Z,17.90
2019-05-23T20:48:32.578Z,17.80
2019-05-23T20:51:00.994Z,17.80
2019-05-23T20:53:29.543Z,17.70
2019-05-23T20:55:58.081Z,17.70
2019-05-23T20:58:26.428Z,17.60
2019-05-23T21:00:59.202Z,17.60
2019-05-23T21:03:28.255Z,17.50
2019-05-23T21:05:56.666Z,17.50
2019-05-23T21:08:25.083Z,17.40
2019-05-23T21:10:53.462Z,17.40
2019-05-23T21:13:21.879Z,17.40
2019-05-23T21:15:50.273Z,17.40
2019-05-23T21:18:18.716Z,17.30
2019-05-23T21:20:47.151Z,17.30
2019-05-23T21:23:16.942Z,17.30
2019-05-23T21:25:47.046Z,17.30
2019-05-23T21:28:15.428Z,17.30
2019-05-23T21:30:43.837Z,17.30
2019-05-23T21:33:12.216Z,17.30
2019-05-23T21:35:40.624Z,17.30
2019-05-23T21:38:09.243Z,17.30
2019-05-23T21:40:40.323Z,17.20
2019-05-23T21:43:08.742Z,17.20
2019-05-23T21:45:37.201Z,17.20
2019-05-23T21:48:05.668Z,17.10
2019-05-23T21:50:34.045Z,17.10
2019-05-23T21:53:02.939Z,17.10
2019-05-23T21:55:38.989Z,17.10
2019-05-23T21:58:07.489Z,17.10
2019-05-23T22:01:07.911Z,17.10
2019-05-23T22:03:44.183Z,17.00
2019-05-23T22:06:14.293Z,17.00
2019-05-23T22:08:42.719Z,17.00
2019-05-23T22:11:11.201Z,16.90
2019-05-23T22:13:39.602Z,16.90
2019-05-23T22:16:08.418Z,16.80
2019-05-23T22:18:36.806Z,16.80
2019-05-23T22:21:05.198Z,16.80
2019-05-23T22:23:34.731Z,16.80
2019-05-23T22:26:03.317Z,16.80
2019-05-23T22:28:31.707Z,16.70
2019-05-23T22:31:00.081Z,16.70
2019-05-23T22:33:33.291Z,16.70
2019-05-23T22:36:01.710Z,16.70
2019-05-23T22:38:30.102Z,16.70
2019-05-23T22:40:58.488Z,16.70
2019-05-23T22:43:26.953Z,16.70
2019-05-23T22:45:55.366Z,16.60
2019-05-23T22:48:23.760Z,16.60
2019-05-23T22:50:52.134Z,16.60
2019-05-23T22:53:20.548Z,16.50
2019-05-23T22:55:48.943Z,16.50
2019-05-23T22:58:17.430Z,16.50
2019-05-23T23:00:47.485Z,16.50
2019-05-23T23:03:15.866Z,16.50
2019-05-23T23:05:44.349Z,16.40
2019-05-23T23:08:12.759Z,16.40
2019-05-23T23:10:41.174Z,16.40
2019-05-23T23:13:09.600Z,16.40
2019-05-23T23:15:38.066Z,16.30
2019-05-23T23:18:07.035Z,16.30
2019-05-23T23:20:35.416Z,16.30
2019-05-23T23:23:03.819Z,16.30
2019-05-23T23:25:33.176Z,16.20
2019-05-23T23:28:01.627Z,16.20
2019-05-23T23:30:31.842Z,16.20
2019-05-23T23:33:00.275Z,16.20
2019-05-23T23:35:28.673Z,16.10
2019-05-23T23:37:57.053Z,16.10
2019-05-23T23:40:25.500Z,16.10
2019-05-23T23:42:54.764Z,16.10
2019-05-23T23:45:41.320Z,16.10
2019-05-23T23:48:27.706Z,16.10
2019-05-23T23:51:13.808Z,16.00
2019-05-23T23:54:00.114Z,15.90
2019-05-23T23:56:46.700Z,15.90
2019-05-23T23:59:14.406Z,15.90
